MSC Luisa — H9XU — position and weather

sailwx.info

Track history (hours):
 
Tides and Currents Weather Stations Pressure Air Temp Water Temp Dewpoint Dewpoint Depression Visibility Wind Speed Wind Dir Waves Ship Positions

MSC Luisa

Last reported at 2015-Aug-30 22:14 UTC. Time now 2015-Aug-31 06:49 UTC.
Position S 23°57' W 046°19'.

Length 300 m; draft 11.5 m.

Type: Ship. MMSI: 355308000.

Date/timePositionNaut miles runAvg speedWind from/ knotsBaromVisibWave heightAir tempDewpointWater temp
2015-Aug-30 22:14S 23°57' W 046°19'4 5.3
2015-Aug-30 21:34S 23°60' W 046°20'9 8.9
2015-Aug-30 20:33S 24°08' W 046°24'9 8.7
2015-Aug-30 19:32S 24°17' W 046°26'4 3.5
2015-Aug-30 18:33S 24°20' W 046°27'1 1.0
2015-Aug-30 17:34S 24°21' W 046°26'1 0.9
2015-Aug-30 16:33S 24°21' W 046°25'2 2.5
2015-Aug-30 15:33S 24°19' W 046°27'3 2.5
2015-Aug-30 14:33S 24°17' W 046°26'1 0.8
2015-Aug-30 13:32S 24°17' W 046°26'1 0.9
2015-Aug-30 12:34S 24°18' W 046°25'1 0.7
2015-Aug-30 11:33S 24°19' W 046°24'1 0.5
2015-Aug-30 10:33S 24°19' W 046°24'0 0.3
2015-Aug-30 09:33S 24°19' W 046°24'0 0.3
2015-Aug-30 08:33S 24°19' W 046°23'1 0.9
2015-Aug-30 07:33S 24°18' W 046°24'4 3.4
2015-Aug-30 06:31S 24°21' W 046°27'8 8.8
2015-Aug-30 05:34S 24°29' W 046°30'9 8.7
2015-Aug-30 04:33S 24°36' W 046°35'9 8.9
2015-Aug-30 03:33S 24°43' W 046°41'9 8.9
2015-Aug-30 02:33S 24°50' W 046°47'9 9.1
2015-Aug-30 01:33S 24°58' W 046°53'9 9.0
2015-Aug-30 00:33S 25°05' W 046°59'149 4.3
2015-Aug-28 14:10S 27°19' W 048°11'1117.9
2015-Aug-28 13:34S 27°30' W 048°11'1818.3
2015-Aug-28 12:34S 27°49' W 048°11'  
2015-Aug-23 17:33S 34°44' W 057°42'1413.8
2015-Aug-23 16:33S 34°41' W 057°58'16 0.8
2015-Aug-22 19:32S 34°36' W 058°17'1111.7
2015-Aug-22 18:33S 34°39' W 058°04'1312.7
2015-Aug-22 17:33S 34°45' W 057°50'1010.1
2015-Aug-22 16:33S 34°45' W 057°38'  
Track history (hours):
 
Tides and Currents Weather Stations Pressure Air Temp Water Temp Dewpoint Dewpoint Depression Visibility Wind Speed Wind Dir Waves Ship Positions

MSC Luisa

Last reported at 2015-Aug-30 22:14 UTC. Time now 2015-Aug-31 06:49 UTC.
Position S 23°57' W 046°19'.

Length 300 m; draft 11.5 m.

Type: Ship. MMSI: 355308000.

Date/timePositionNaut miles runAvg speedWind from/ knotsBaromVisibWave heightAir tempDewpointWater temp
2015-Aug-30 22:14S 23°57' W 046°19'4 5.3
2015-Aug-30 21:34S 23°60' W 046°20'9 8.9
2015-Aug-30 20:33S 24°08' W 046°24'9 8.7
2015-Aug-30 19:32S 24°17' W 046°26'4 3.5
2015-Aug-30 18:33S 24°20' W 046°27'1 1.0
2015-Aug-30 17:34S 24°21' W 046°26'1 0.9
2015-Aug-30 16:33S 24°21' W 046°25'2 2.5
2015-Aug-30 15:33S 24°19' W 046°27'3 2.5
2015-Aug-30 14:33S 24°17' W 046°26'1 0.8
2015-Aug-30 13:32S 24°17' W 046°26'1 0.9
2015-Aug-30 12:34S 24°18' W 046°25'1 0.7
2015-Aug-30 11:33S 24°19' W 046°24'1 0.5
2015-Aug-30 10:33S 24°19' W 046°24'0 0.3
2015-Aug-30 09:33S 24°19' W 046°24'0 0.3
2015-Aug-30 08:33S 24°19' W 046°23'1 0.9
2015-Aug-30 07:33S 24°18' W 046°24'4 3.4
2015-Aug-30 06:31S 24°21' W 046°27'8 8.8
2015-Aug-30 05:34S 24°29' W 046°30'9 8.7
2015-Aug-30 04:33S 24°36' W 046°35'9 8.9
2015-Aug-30 03:33S 24°43' W 046°41'9 8.9
2015-Aug-30 02:33S 24°50' W 046°47'9 9.1
2015-Aug-30 01:33S 24°58' W 046°53'9 9.0
2015-Aug-30 00:33S 25°05' W 046°59'149 4.3
2015-Aug-28 14:10S 27°19' W 048°11'1117.9
2015-Aug-28 13:34S 27°30' W 048°11'1818.3
2015-Aug-28 12:34S 27°49' W 048°11'  
2015-Aug-23 17:33S 34°44' W 057°42'1413.8
2015-Aug-23 16:33S 34°41' W 057°58'16 0.8
2015-Aug-22 19:32S 34°36' W 058°17'1111.7
2015-Aug-22 18:33S 34°39' W 058°04'1312.7
2015-Aug-22 17:33S 34°45' W 057°50'1010.1
2015-Aug-22 16:33S 34°45' W 057°38'  

Dump ship's entire track history